sensor_id;sensor_type;location;lat;lon;timestamp;pressure;altitude;pressure_sealevel;temperature
70415;BMP280;57837;52.064;113.478;2023-04-01T00:01:37;93662.13;;;9.22
70415;BMP280;57837;52.064;113.478;2023-04-01T00:04:41;93669.19;;;8.99
70415;BMP280;57837;52.064;113.478;2023-04-01T00:07:45;93672.00;;;8.92
70415;BMP280;57837;52.064;113.478;2023-04-01T00:10:49;93669.25;;;10.47
70415;BMP280;57837;52.064;113.478;2023-04-01T00:13:53;93672.69;;;10.80
70415;BMP280;57837;52.064;113.478;2023-04-01T00:16:57;93673.81;;;10.06
70415;BMP280;57837;52.064;113.478;2023-04-01T00:20:02;93664.91;;;10.80
70415;BMP280;57837;52.064;113.478;2023-04-01T00:23:06;93666.38;;;11.98
70415;BMP280;57837;52.064;113.478;2023-04-01T00:26:10;93657.16;;;10.89
70415;BMP280;57837;52.064;113.478;2023-04-01T00:29:15;93661.06;;;9.10
70415;BMP280;57837;52.064;113.478;2023-04-01T00:32:19;93669.50;;;8.32
70415;BMP280;57837;52.064;113.478;2023-04-01T00:35:23;93676.00;;;8.37
70415;BMP280;57837;52.064;113.478;2023-04-01T00:38:27;93670.91;;;9.24
70415;BMP280;57837;52.064;113.478;2023-04-01T00:41:30;93664.47;;;10.27
70415;BMP280;57837;52.064;113.478;2023-04-01T00:44:36;93667.50;;;10.16
70415;BMP280;57837;52.064;113.478;2023-04-01T00:47:40;93667.00;;;9.50
70415;BMP280;57837;52.064;113.478;2023-04-01T00:50:49;93674.75;;;9.20
70415;BMP280;57837;52.064;113.478;2023-04-01T00:53:56;93669.63;;;8.29
70415;BMP280;57837;52.064;113.478;2023-04-01T00:57:05;93663.88;;;7.49
70415;BMP280;57837;52.064;113.478;2023-04-01T01:00:11;93662.19;;;6.88
70415;BMP280;57837;52.064;113.478;2023-04-01T01:03:18;93654.19;;;6.70
70415;BMP280;57837;52.064;113.478;2023-04-01T01:10:39;93673.56;;;6.74
70415;BMP280;57837;52.064;113.478;2023-04-01T01:14:01;93674.78;;;6.99
70415;BMP280;57837;52.064;113.478;2023-04-01T01:17:22;93673.84;;;6.93
70415;BMP280;57837;52.064;113.478;2023-04-01T01:27:27;93708.06;;;6.61
70415;BMP280;57837;52.064;113.478;2023-04-01T01:30:43;93708.19;;;7.15
70415;BMP280;57837;52.064;113.478;2023-04-01T01:37:22;93729.16;;;6.56
70415;BMP280;57837;52.064;113.478;2023-04-01T01:40:27;93743.53;;;6.98
70415;BMP280;57837;52.064;113.478;2023-04-01T01:43:51;93735.94;;;6.78
70415;BMP280;57837;52.064;113.478;2023-04-01T01:46:56;93732.22;;;6.31
70415;BMP280;57837;52.064;113.478;2023-04-01T01:50:00;93748.06;;;6.29
70415;BMP280;57837;52.064;113.478;2023-04-01T01:53:09;93753.44;;;6.35
70415;BMP280;57837;52.064;113.478;2023-04-01T01:56:12;93761.66;;;6.62
70415;BMP280;57837;52.064;113.478;2023-04-01T01:59:19;93761.75;;;6.75
70415;BMP280;57837;52.064;113.478;2023-04-01T02:02:25;93763.66;;;6.87
70415;BMP280;57837;52.064;113.478;2023-04-01T02:05:30;93767.84;;;6.49
70415;BMP280;57837;52.064;113.478;2023-04-01T02:08:47;93772.91;;;7.01
70415;BMP280;57837;52.064;113.478;2023-04-01T02:12:04;93787.31;;;6.82
70415;BMP280;57837;52.064;113.478;2023-04-01T02:15:14;93794.72;;;6.80
70415;BMP280;57837;52.064;113.478;2023-04-01T02:18:18;93802.84;;;7.24
70415;BMP280;57837;52.064;113.478;2023-04-01T02:21:27;93807.38;;;7.48
70415;BMP280;57837;52.064;113.478;2023-04-01T02:24:35;93807.22;;;7.10
70415;BMP280;57837;52.064;113.478;2023-04-01T02:27:40;93811.69;;;6.77
70415;BMP280;57837;52.064;113.478;2023-04-01T02:30:44;93827.97;;;7.19
70415;BMP280;57837;52.064;113.478;2023-04-01T02:33:48;93825.31;;;7.52
70415;BMP280;57837;52.064;113.478;2023-04-01T02:36:53;93833.00;;;7.39
70415;BMP280;57837;52.064;113.478;2023-04-01T02:40:02;93834.66;;;7.46
70415;BMP280;57837;52.064;113.478;2023-04-01T02:43:06;93834.81;;;7.55
70415;BMP280;57837;52.064;113.478;2023-04-01T02:46:10;93828.16;;;7.41
70415;BMP280;57837;52.064;113.478;2023-04-01T02:49:13;93828.06;;;7.45
70415;BMP280;57837;52.064;113.478;2023-04-01T02:52:18;93819.81;;;7.37
70415;BMP280;57837;52.064;113.478;2023-04-01T02:55:21;93824.59;;;6.74
70415;BMP280;57837;52.064;113.478;2023-04-01T02:58:25;93813.34;;;7.00
70415;BMP280;57837;52.064;113.478;2023-04-01T03:01:28;93802.44;;;6.80
70415;BMP280;57837;52.064;113.478;2023-04-01T03:04:32;93801.13;;;6.72
70415;BMP280;57837;52.064;113.478;2023-04-01T03:07:35;93804.31;;;7.08
70415;BMP280;57837;52.064;113.478;2023-04-01T03:10:39;93802.81;;;6.95
70415;BMP280;57837;52.064;113.478;2023-04-01T03:13:43;93801.66;;;7.12
70415;BMP280;57837;52.064;113.478;2023-04-01T03:16:46;93802.19;;;7.36
70415;BMP280;57837;52.064;113.478;2023-04-01T03:19:50;93799.53;;;6.94
70415;BMP280;57837;52.064;113.478;2023-04-01T03:23:17;93802.25;;;6.87
70415;BMP280;57837;52.064;113.478;2023-04-01T03:26:21;93804.09;;;6.87
70415;BMP280;57837;52.064;113.478;2023-04-01T03:29:25;93812.59;;;7.16
70415;BMP280;57837;52.064;113.478;2023-04-01T03:32:28;93804.25;;;6.63
70415;BMP280;57837;52.064;113.478;2023-04-01T03:35:32;93810.19;;;6.28
70415;BMP280;57837;52.064;113.478;2023-04-01T03:38:36;93794.81;;;6.04
70415;BMP280;57837;52.064;113.478;2023-04-01T03:41:40;93794.88;;;5.85
70415;BMP280;57837;52.064;113.478;2023-04-01T03:44:43;93784.63;;;6.37
70415;BMP280;57837;52.064;113.478;2023-04-01T03:47:47;93801.75;;;6.60
70415;BMP280;57837;52.064;113.478;2023-04-01T03:50:51;93795.97;;;6.39
70415;BMP280;57837;52.064;113.478;2023-04-01T03:53:55;93792.81;;;5.96
70415;BMP280;57837;52.064;113.478;2023-04-01T03:56:59;93800.41;;;6.19
70415;BMP280;57837;52.064;113.478;2023-04-01T04:00:04;93796.22;;;6.61
70415;BMP280;57837;52.064;113.478;2023-04-01T04:03:14;93795.00;;;6.98
70415;BMP280;57837;52.064;113.478;2023-04-01T04:06:18;93792.28;;;7.05
70415;BMP280;57837;52.064;113.478;2023-04-01T04:09:23;93789.84;;;7.14
70415;BMP280;57837;52.064;113.478;2023-04-01T04:12:26;93787.97;;;6.54
70415;BMP280;57837;52.064;113.478;2023-04-01T04:15:31;93792.91;;;6.44
70415;BMP280;57837;52.064;113.478;2023-04-01T04:18:35;93794.63;;;6.31
70415;BMP280;57837;52.064;113.478;2023-04-01T04:21:40;93804.09;;;6.70
70415;BMP280;57837;52.064;113.478;2023-04-01T04:24:44;93817.97;;;7.21
70415;BMP280;57837;52.064;113.478;2023-04-01T04:27:47;93810.47;;;7.43
70415;BMP280;57837;52.064;113.478;2023-04-01T04:30:53;93815.16;;;7.32
70415;BMP280;57837;52.064;113.478;2023-04-01T04:33:59;93809.19;;;7.06
70415;BMP280;57837;52.064;113.478;2023-04-01T04:37:07;93810.34;;;7.18
70415;BMP280;57837;52.064;113.478;2023-04-01T04:40:12;93809.28;;;7.32
70415;BMP280;57837;52.064;113.478;2023-04-01T04:43:16;93820.00;;;7.30
70415;BMP280;57837;52.064;113.478;2023-04-01T04:46:21;93806.81;;;7.12
70415;BMP280;57837;52.064;113.478;2023-04-01T04:49:28;93809.97;;;6.87
70415;BMP280;57837;52.064;113.478;2023-04-01T04:52:32;93805.63;;;6.68
70415;BMP280;57837;52.064;113.478;2023-04-01T04:55:35;93814.41;;;6.34
70415;BMP280;57837;52.064;113.478;2023-04-01T04:59:17;93817.97;;;6.24
70415;BMP280;57837;52.064;113.478;2023-04-01T05:02:29;93817.44;;;6.13
70415;BMP280;57837;52.064;113.478;2023-04-01T05:05:33;93810.13;;;6.64
70415;BMP280;57837;52.064;113.478;2023-04-01T05:08:38;93811.25;;;6.63
70415;BMP280;57837;52.064;113.478;2023-04-01T05:11:43;93827.97;;;6.19
70415;BMP280;57837;52.064;113.478;2023-04-01T05:14:47;93820.75;;;5.94
70415;BMP280;57837;52.064;113.478;2023-04-01T05:17:51;93814.75;;;6.00
70415;BMP280;57837;52.064;113.478;2023-04-01T05:20:55;93815.59;;;5.94
70415;BMP280;57837;52.064;113.478;2023-04-01T05:23:59;93833.19;;;6.15
70415;BMP280;57837;52.064;113.478;2023-04-01T05:27:03;93831.00;;;6.14
70415;BMP280;57837;52.064;113.478;2023-04-01T05:30:10;93837.03;;;5.87
70415;BMP280;57837;52.064;113.478;2023-04-01T05:33:33;93843.13;;;5.74
70415;BMP280;57837;52.064;113.478;2023-04-01T05:36:38;93853.88;;;5.68
70415;BMP280;57837;52.064;113.478;2023-04-01T05:39:42;93836.69;;;5.65
70415;BMP280;57837;52.064;113.478;2023-04-01T05:42:46;93834.81;;;5.46
70415;BMP280;57837;52.064;113.478;2023-04-01T05:45:51;93833.81;;;5.40
70415;BMP280;57837;52.064;113.478;2023-04-01T05:49:11;93850.91;;;5.47
70415;BMP280;57837;52.064;113.478;2023-04-01T05:52:15;93851.59;;;5.27
70415;BMP280;57837;52.064;113.478;2023-04-01T05:55:19;93845.31;;;5.09
70415;BMP280;57837;52.064;113.478;2023-04-01T05:58:24;93846.81;;;5.06
70415;BMP280;57837;52.064;113.478;2023-04-01T06:01:28;93851.34;;;4.95
70415;BMP280;57837;52.064;113.478;2023-04-01T06:04:38;93858.88;;;4.82
70415;BMP280;57837;52.064;113.478;2023-04-01T06:07:44;93857.50;;;5.01
70415;BMP280;57837;52.064;113.478;2023-04-01T06:21:21;93854.91;;;6.11
70415;BMP280;57837;52.064;113.478;2023-04-01T06:28:01;93856.38;;;7.00
70415;BMP280;57837;52.064;113.478;2023-04-01T06:34:42;93872.13;;;7.18
70415;BMP280;57837;52.064;113.478;2023-04-01T06:41:42;93856.13;;;6.94
70415;BMP280;57837;52.064;113.478;2023-04-01T06:45:04;93859.16;;;6.73
70415;BMP280;57837;52.064;113.478;2023-04-01T06:55:59;93858.03;;;7.22
70415;BMP280;57837;52.064;113.478;2023-04-01T06:59:28;93844.69;;;7.28
70415;BMP280;57837;52.064;113.478;2023-04-01T07:02:46;93850.47;;;7.32
70415;BMP280;57837;52.064;113.478;2023-04-01T07:05:53;93866.81;;;6.93
70415;BMP280;57837;52.064;113.478;2023-04-01T07:09:00;93877.63;;;7.04
70415;BMP280;57837;52.064;113.478;2023-04-01T07:16:03;93879.84;;;7.02
70415;BMP280;57837;52.064;113.478;2023-04-01T07:19:17;93858.78;;;6.38
70415;BMP280;57837;52.064;113.478;2023-04-01T07:22:50;93868.50;;;5.91
70415;BMP280;57837;52.064;113.478;2023-04-01T07:26:07;93875.56;;;5.87
70415;BMP280;57837;52.064;113.478;2023-04-01T07:29:28;93882.69;;;5.76
70415;BMP280;57837;52.064;113.478;2023-04-01T07:32:50;93872.47;;;5.96
70415;BMP280;57837;52.064;113.478;2023-04-01T07:39:55;93877.94;;;5.75
70415;BMP280;57837;52.064;113.478;2023-04-01T07:47:11;93892.41;;;6.08
70415;BMP280;57837;52.064;113.478;2023-04-01T07:50:41;93887.94;;;6.12
70415;BMP280;57837;52.064;113.478;2023-04-01T08:04:25;93884.69;;;5.68
70415;BMP280;57837;52.064;113.478;2023-04-01T08:11:34;93877.69;;;5.89
70415;BMP280;57837;52.064;113.478;2023-04-01T08:15:23;93881.22;;;5.75
70415;BMP280;57837;52.064;113.478;2023-04-01T08:22:18;93875.75;;;5.07
70415;BMP280;57837;52.064;113.478;2023-04-01T08:25:28;93877.47;;;5.13
70415;BMP280;57837;52.064;113.478;2023-04-01T08:28:51;93878.47;;;4.92
70415;BMP280;57837;52.064;113.478;2023-04-01T08:32:05;93880.66;;;4.94
70415;BMP280;57837;52.064;113.478;2023-04-01T08:35:30;93892.44;;;5.18
70415;BMP280;57837;52.064;113.478;2023-04-01T08:39:24;93901.53;;;5.46
70415;BMP280;57837;52.064;113.478;2023-04-01T08:56:20;93924.16;;;5.05
70415;BMP280;57837;52.064;113.478;2023-04-01T09:15:12;93925.91;;;4.81
70415;BMP280;57837;52.064;113.478;2023-04-01T09:26:07;93903.91;;;5.10
70415;BMP280;57837;52.064;113.478;2023-04-01T09:45:41;93914.16;;;4.83
70415;BMP280;57837;52.064;113.478;2023-04-01T10:06:31;93942.06;;;4.47
70415;BMP280;57837;52.064;113.478;2023-04-01T10:13:43;93949.44;;;4.38
70415;BMP280;57837;52.064;113.478;2023-04-01T10:41:35;93968.06;;;3.64
70415;BMP280;57837;52.064;113.478;2023-04-01T11:28:24;94057.97;;;2.64
70415;BMP280;57837;52.064;113.478;2023-04-01T11:31:54;94051.78;;;2.58
70415;BMP280;57837;52.064;113.478;2023-04-01T11:46:11;94066.75;;;2.21
70415;BMP280;57837;52.064;113.478;2023-04-01T11:53:09;94052.53;;;1.91
70415;BMP280;57837;52.064;113.478;2023-04-01T12:10:20;94067.09;;;1.80
70415;BMP280;57837;52.064;113.478;2023-04-01T12:16:57;94065.50;;;1.44
70415;BMP280;57837;52.064;113.478;2023-04-01T12:20:35;94075.31;;;1.38
70415;BMP280;57837;52.064;113.478;2023-04-01T12:33:48;94084.34;;;1.14
70415;BMP280;57837;52.064;113.478;2023-04-01T13:06:44;94120.38;;;1.13
70415;BMP280;57837;52.064;113.478;2023-04-01T13:13:18;94148.78;;;1.15
70415;BMP280;57837;52.064;113.478;2023-04-01T13:16:29;94154.66;;;1.19
70415;BMP280;57837;52.064;113.478;2023-04-01T13:19:49;94168.09;;;1.16
70415;BMP280;57837;52.064;113.478;2023-04-01T13:26:30;94166.84;;;0.92
70415;BMP280;57837;52.064;113.478;2023-04-01T13:29:39;94180.59;;;0.84
70415;BMP280;57837;52.064;113.478;2023-04-01T13:39:44;94199.50;;;0.83
70415;BMP280;57837;52.064;113.478;2023-04-01T13:43:04;94202.44;;;0.81
70415;BMP280;57837;52.064;113.478;2023-04-01T13:46:42;94208.97;;;0.79
70415;BMP280;57837;52.064;113.478;2023-04-01T13:53:23;94212.53;;;0.71
70415;BMP280;57837;52.064;113.478;2023-04-01T13:56:48;94211.69;;;0.59
70415;BMP280;57837;52.064;113.478;2023-04-01T14:30:35;94241.84;;;0.54
70415;BMP280;57837;52.064;113.478;2023-04-01T14:33:51;94249.88;;;0.59
70415;BMP280;57837;52.064;113.478;2023-04-01T14:37:29;94249.19;;;0.62
70415;BMP280;57837;52.064;113.478;2023-04-01T14:50:56;94266.19;;;0.55
70415;BMP280;57837;52.064;113.478;2023-04-01T14:54:22;94271.22;;;0.48
70415;BMP280;57837;52.064;113.478;2023-04-01T14:57:33;94269.34;;;0.41
70415;BMP280;57837;52.064;113.478;2023-04-01T15:00:48;94281.34;;;0.41
70415;BMP280;57837;52.064;113.478;2023-04-01T15:04:33;94289.97;;;0.32
70415;BMP280;57837;52.064;113.478;2023-04-01T15:07:54;94295.75;;;0.26
70415;BMP280;57837;52.064;113.478;2023-04-01T15:24:46;94295.81;;;-0.23
70415;BMP280;57837;52.064;113.478;2023-04-01T15:31:47;94294.47;;;-0.40
70415;BMP280;57837;52.064;113.478;2023-04-01T15:41:58;94311.34;;;-0.51
70415;BMP280;57837;52.064;113.478;2023-04-01T15:45:31;94306.66;;;-0.49
70415;BMP280;57837;52.064;113.478;2023-04-01T15:55:57;94330.47;;;-0.61
70415;BMP280;57837;52.064;113.478;2023-04-01T15:59:28;94341.72;;;-0.62
70415;BMP280;57837;52.064;113.478;2023-04-01T16:02:55;94348.06;;;-0.49
70415;BMP280;57837;52.064;113.478;2023-04-01T16:06:25;94342.78;;;-0.40
70415;BMP280;57837;52.064;113.478;2023-04-01T16:19:28;94363.84;;;-0.62
70415;BMP280;57837;52.064;113.478;2023-04-01T16:22:39;94368.47;;;-0.68
70415;BMP280;57837;52.064;113.478;2023-04-01T16:25:57;94367.28;;;-0.74
70415;BMP280;57837;52.064;113.478;2023-04-01T16:45:24;94399.06;;;-1.03
70415;BMP280;57837;52.064;113.478;2023-04-01T16:48:49;94398.53;;;-0.93
70415;BMP280;57837;52.064;113.478;2023-04-01T16:52:14;94414.38;;;-0.99
70415;BMP280;57837;52.064;113.478;2023-04-01T16:55:20;94397.25;;;-1.22
70415;BMP280;57837;52.064;113.478;2023-04-01T16:58:25;94404.94;;;-1.18
70415;BMP280;57837;52.064;113.478;2023-04-01T17:15:34;94419.19;;;-1.14
70415;BMP280;57837;52.064;113.478;2023-04-01T17:43:31;94432.38;;;-1.59
70415;BMP280;57837;52.064;113.478;2023-04-01T17:50:23;94423.81;;;-1.86
70415;BMP280;57837;52.064;113.478;2023-04-01T18:00:17;94427.09;;;-1.85
70415;BMP280;57837;52.064;113.478;2023-04-01T18:17:42;94415.34;;;-1.90
70415;BMP280;57837;52.064;113.478;2023-04-01T18:24:40;94401.56;;;-2.08
70415;BMP280;57837;52.064;113.478;2023-04-01T18:27:50;94402.72;;;-2.21
70415;BMP280;57837;52.064;113.478;2023-04-01T18:34:42;94393.34;;;-2.33
70415;BMP280;57837;52.064;113.478;2023-04-01T18:41:07;94376.59;;;-2.53
70415;BMP280;57837;52.064;113.478;2023-04-01T18:44:30;94369.31;;;-2.55
70415;BMP280;57837;52.064;113.478;2023-04-01T18:48:33;94375.44;;;-2.56
70415;BMP280;57837;52.064;113.478;2023-04-01T18:51:21;94391.38;;;-2.55
70415;BMP280;57837;52.064;113.478;2023-04-01T18:58:20;94394.16;;;-2.73
70415;BMP280;57837;52.064;113.478;2023-04-01T19:05:16;94394.00;;;-2.80
70415;BMP280;57837;52.064;113.478;2023-04-01T19:08:39;94401.03;;;-2.73
70415;BMP280;57837;52.064;113.478;2023-04-01T19:19:38;94413.69;;;-3.01
70415;BMP280;57837;52.064;113.478;2023-04-01T19:26:46;94398.25;;;-2.96
70415;BMP280;57837;52.064;113.478;2023-04-01T19:30:07;94391.88;;;-3.06
70415;BMP280;57837;52.064;113.478;2023-04-01T19:46:48;94416.28;;;-2.97
70415;BMP280;57837;52.064;113.478;2023-04-01T19:49:57;94436.47;;;-3.01
70415;BMP280;57837;52.064;113.478;2023-04-01T19:53:46;94432.97;;;-2.84
70415;BMP280;57837;52.064;113.478;2023-04-01T19:56:57;94427.91;;;-2.96
70415;BMP280;57837;52.064;113.478;2023-04-01T20:07:00;94438.28;;;-3.02
70415;BMP280;57837;52.064;113.478;2023-04-01T20:20:23;94448.28;;;-2.93
70415;BMP280;57837;52.064;113.478;2023-04-01T20:23:41;94463.16;;;-2.91
70415;BMP280;57837;52.064;113.478;2023-04-01T20:26:51;94460.63;;;-3.04
70415;BMP280;57837;52.064;113.478;2023-04-01T20:41:38;94443.59;;;-3.31
70415;BMP280;57837;52.064;113.478;2023-04-01T20:51:03;94450.44;;;-3.19
70415;BMP280;57837;52.064;113.478;2023-04-01T20:54:24;94442.41;;;-3.21
70415;BMP280;57837;52.064;113.478;2023-04-01T20:58:01;94435.16;;;-3.47
70415;BMP280;57837;52.064;113.478;2023-04-01T21:01:31;94431.44;;;-3.50
70415;BMP280;57837;52.064;113.478;2023-04-01T21:12:19;94446.03;;;-3.59
70415;BMP280;57837;52.064;113.478;2023-04-01T21:15:36;94457.50;;;-3.61
70415;BMP280;57837;52.064;113.478;2023-04-01T21:18:55;94458.53;;;-3.75
70415;BMP280;57837;52.064;113.478;2023-04-01T21:29:12;94460.63;;;-3.77
70415;BMP280;57837;52.064;113.478;2023-04-01T21:32:36;94458.41;;;-3.78
70415;BMP280;57837;52.064;113.478;2023-04-01T21:46:36;94485.81;;;-3.80
70415;BMP280;57837;52.064;113.478;2023-04-01T22:03:28;94524.28;;;-3.87
70415;BMP280;57837;52.064;113.478;2023-04-01T22:06:44;94534.91;;;-3.81
70415;BMP280;57837;52.064;113.478;2023-04-01T22:09:52;94549.56;;;-3.75
70415;BMP280;57837;52.064;113.478;2023-04-01T22:13:12;94548.41;;;-3.77
70415;BMP280;57837;52.064;113.478;2023-04-01T22:17:05;94553.44;;;-3.77
70415;BMP280;57837;52.064;113.478;2023-04-01T22:23:41;94554.56;;;-3.66
70415;BMP280;57837;52.064;113.478;2023-04-01T22:26:56;94566.88;;;-3.65
70415;BMP280;57837;52.064;113.478;2023-04-01T22:30:30;94583.22;;;-3.62
70415;BMP280;57837;52.064;113.478;2023-04-01T22:43:57;94585.47;;;-3.81
70415;BMP280;57837;52.064;113.478;2023-04-01T22:54:23;94563.13;;;-3.79
70415;BMP280;57837;52.064;113.478;2023-04-01T23:00:43;94552.69;;;-3.57
70415;BMP280;57837;52.064;113.478;2023-04-01T23:03:49;94541.13;;;-3.34
70415;BMP280;57837;52.064;113.478;2023-04-01T23:06:58;94529.94;;;-3.45
70415;BMP280;57837;52.064;113.478;2023-04-01T23:10:06;94526.22;;;-3.59
70415;BMP280;57837;52.064;113.478;2023-04-01T23:13:20;94526.19;;;-3.84
70415;BMP280;57837;52.064;113.478;2023-04-01T23:16:37;94529.38;;;-3.62
70415;BMP280;57837;52.064;113.478;2023-04-01T23:26:34;94554.75;;;-3.71
70415;BMP280;57837;52.064;113.478;2023-04-01T23:29:38;94544.94;;;-3.73
70415;BMP280;57837;52.064;113.478;2023-04-01T23:32:46;94550.34;;;-3.62
70415;BMP280;57837;52.064;113.478;2023-04-01T23:35:53;94544.88;;;-3.52
70415;BMP280;57837;52.064;113.478;2023-04-01T23:38:58;94547.00;;;-3.42
70415;BMP280;57837;52.064;113.478;2023-04-01T23:45:19;94566.72;;;-2.99
70415;BMP280;57837;52.064;113.478;2023-04-01T23:48:35;94557.59;;;-3.03
70415;BMP280;57837;52.064;113.478;2023-04-01T23:51:50;94551.78;;;-2.91
70415;BMP280;57837;52.064;113.478;2023-04-01T23:55:13;94535.13;;;-3.05
70415;BMP280;57837;52.064;113.478;2023-04-01T23:58:38;94517.72;;;-3.06
